Aviano, Italy

11:55 AM CET on November 28, 2014 (GMT +0100)
Aviano USAFB | Change Station
CLOSE
Current Station
Airport
Location: Aviano USAFB,
Elevation: 413 ft
Nearby Weather Stations

Elev 413 ft 46.03 °N, 12.60 °E | Updated 57 minutes ago

Overcast
Overcast
52 °F
Feels Like 52 °F
N
8
Wind Variable Wind from NE

Today
High -- | Low -- °F
--% Chance of Precip.
Yesterday
High -- | Low -- °F
Precip. -- in
7:27 AM 4:27 PM
Waxing Crescent, 39% visible
Pressure 30.02 in
Visibility 6.2 miles
Clouds Mostly Cloudy 2700 ft
Overcast 3200 ft
Dew Point 52 °F
Humidity 100%
Rainfall 0.07 in
Snow Depth Not available.
UV 1 out of 12
Pollen Not available.
Air Quality Not available.
Flu Activity Not available.
METAR LIYW 280958Z AUTO 05007KT 9999 BKN027 OVC032 11/11 A3000 RMK AO2 DZE0911 CIG 027V032 BKN V SCT SLP164 P0000 T01100110

More Conditions Fewer Conditions

Pressure 30.02 in
Visibility 6.2 miles
Clouds Mostly Cloudy 2700 ft
Overcast 3200 ft
Dew Point 52 °F
Humidity 100%
Rainfall 0.07 in
Snow Depth Not available.
UV 1 out of 12
Pollen Not available.
Air Quality Not available.
Flu Activity Not available.
METAR LIYW 280958Z AUTO 05007KT 9999 BKN027 OVC032 11/11 A3000 RMK AO2 DZE0911 CIG 027V032 BKN V SCT SLP164 P0000 T01100110

More Conditions Fewer Conditions

10-Day Weather Forecast

Almanac

Astronomy

Nov. 28, 2014 Rise Set
Actual Time
Civil Twilight
Nautical Twilight
Astronomical Twilight
Moon
Length of Visible Light
Length of Day
Tomorrow will be .
, % of the Moon is Illuminated

Today's Extremes

Country Highs Country Lows

Community

WunderPhotos

Upload Photos

1,774,192 photos uploaded!

WunderBlogs® & News

Nearby

Air Quality

  Air Quality AQ Index Pollutant
Not available.

Snow Depth

Station Depth Elevation

Earthquake Activity

City Distance Mag. Time & Date
Minimum magnitude displayed is 2.5.

Coastal Water Temperatures

Place Temperature

Nearby Weather Stations